createdAt,value
2022-12-15T00:00:12.224Z,7.10
2022-12-15T00:02:58.161Z,7.00
2022-12-15T00:05:45.088Z,6.90
2022-12-15T00:08:36.173Z,6.80
2022-12-15T00:11:22.803Z,6.80
2022-12-15T00:14:08.364Z,6.90
2022-12-15T00:16:54.232Z,7.00
2022-12-15T00:19:39.980Z,6.90
2022-12-15T00:22:28.334Z,7.00
2022-12-15T00:25:14.294Z,7.10
2022-12-15T00:28:00.239Z,7.20
2022-12-15T00:30:49.661Z,7.10
2022-12-15T00:33:36.941Z,7.10
2022-12-15T00:36:23.092Z,7.00
2022-12-15T00:38:50.399Z,7.00
2022-12-15T00:41:19.048Z,7.10
2022-12-15T00:43:46.769Z,7.10
2022-12-15T00:46:33.440Z,7.10
2022-12-15T00:49:01.747Z,7.20
2022-12-15T00:51:50.263Z,7.00
2022-12-15T00:54:35.819Z,6.70
2022-12-15T00:57:21.879Z,6.80
2022-12-15T01:00:07.859Z,6.90
2022-12-15T01:02:54.084Z,6.90
2022-12-15T01:05:40.174Z,7.10
2022-12-15T01:08:26.328Z,7.20
2022-12-15T01:11:12.288Z,7.30
2022-12-15T01:13:58.208Z,7.30
2022-12-15T01:16:43.936Z,7.30
2022-12-15T01:19:29.921Z,7.20
2022-12-15T01:21:57.248Z,7.10
2022-12-15T01:24:26.225Z,6.90
2022-12-15T01:26:53.962Z,7.00
2022-12-15T01:29:21.322Z,7.00
2022-12-15T01:31:49.897Z,6.90
2022-12-15T01:34:20.341Z,6.90
2022-12-15T01:36:47.563Z,7.10
2022-12-15T01:39:15.274Z,7.20
2022-12-15T01:41:42.546Z,7.30
2022-12-15T01:44:37.356Z,7.20
2022-12-15T01:47:05.791Z,6.90
2022-12-15T01:49:33.356Z,6.80
2022-12-15T01:52:04.956Z,6.80
2022-12-15T01:54:58.163Z,6.90
2022-12-15T01:57:34.328Z,6.80
2022-12-15T02:00:03.307Z,6.80
2022-12-15T02:02:38.303Z,6.90
2022-12-15T02:05:08.933Z,6.80
2022-12-15T02:07:36.075Z,6.80
2022-12-15T02:10:07.465Z,6.80
2022-12-15T02:12:44.106Z,7.00
2022-12-15T02:15:14.168Z,7.10
2022-12-15T02:17:41.205Z,7.00
2022-12-15T02:20:57.477Z,7.10
2022-12-15T02:23:24.576Z,6.90
2022-12-15T02:26:19.402Z,6.90
2022-12-15T02:29:07.910Z,7.00
2022-12-15T02:31:50.605Z,6.90
2022-12-15T02:34:46.661Z,6.90
2022-12-15T02:37:25.256Z,6.90
2022-12-15T02:39:52.543Z,6.80
2022-12-15T02:42:20.393Z,6.90
2022-12-15T02:45:02.706Z,7.00
2022-12-15T02:48:00.508Z,7.10
2022-12-15T02:50:33.761Z,7.10
2022-12-15T02:53:11.528Z,7.10
2022-12-15T02:56:09.198Z,7.10
2022-12-15T02:58:42.214Z,7.20
2022-12-15T03:01:21.217Z,7.20
2022-12-15T03:03:50.568Z,7.20
2022-12-15T03:06:18.566Z,7.20
2022-12-15T03:08:45.790Z,7.20
2022-12-15T03:11:12.907Z,7.20
2022-12-15T03:13:39.981Z,7.00
2022-12-15T03:16:07.318Z,7.00
2022-12-15T03:18:34.456Z,6.90
2022-12-15T03:21:01.669Z,7.00
2022-12-15T03:23:29.365Z,7.00
2022-12-15T03:25:56.748Z,7.20
2022-12-15T03:28:24.492Z,7.10
2022-12-15T03:30:51.686Z,7.00
2022-12-15T03:33:20.135Z,7.00
2022-12-15T03:35:48.016Z,7.20
2022-12-15T03:38:15.488Z,7.10
2022-12-15T03:40:44.163Z,7.20
2022-12-15T03:43:11.584Z,7.30
2022-12-15T03:45:39.103Z,7.30
2022-12-15T03:48:06.917Z,7.40
2022-12-15T03:50:34.667Z,7.40
2022-12-15T03:53:03.871Z,7.30
2022-12-15T03:55:34.281Z,7.40
2022-12-15T03:58:02.232Z,7.40
2022-12-15T04:00:29.804Z,7.40
2022-12-15T04:02:57.167Z,7.40
2022-12-15T04:05:26.101Z,7.50
2022-12-15T04:07:54.623Z,7.50
2022-12-15T04:10:22.618Z,7.50
2022-12-15T04:12:50.177Z,7.50
2022-12-15T04:15:17.487Z,7.40
2022-12-15T04:17:44.622Z,7.30
2022-12-15T04:20:12.662Z,7.30
2022-12-15T04:22:44.947Z,7.30
2022-12-15T04:25:34.914Z,7.40
2022-12-15T04:28:21.051Z,7.40
2022-12-15T04:31:20.660Z,7.40
2022-12-15T04:34:10.570Z,7.40
2022-12-15T04:36:59.116Z,7.40
2022-12-15T04:39:45.161Z,7.50
2022-12-15T04:42:31.610Z,7.50
2022-12-15T04:45:21.250Z,7.60
2022-12-15T04:48:07.118Z,7.70
2022-12-15T04:50:53.730Z,7.60
2022-12-15T04:53:40.563Z,7.60
2022-12-15T04:56:31.382Z,7.70
2022-12-15T04:59:17.645Z,7.70
2022-12-15T05:02:03.839Z,7.80
2022-12-15T05:04:49.860Z,7.70
2022-12-15T05:07:35.900Z,7.70
2022-12-15T05:10:22.692Z,7.60
2022-12-15T05:13:08.586Z,7.50
2022-12-15T05:15:54.485Z,7.50
2022-12-15T05:18:40.372Z,7.50
2022-12-15T05:21:26.473Z,7.50
2022-12-15T05:24:12.761Z,7.40
2022-12-15T05:26:58.778Z,7.70
2022-12-15T05:29:44.970Z,7.70
2022-12-15T05:32:13.440Z,7.70
2022-12-15T05:34:40.709Z,7.70
2022-12-15T05:37:07.929Z,7.80
2022-12-15T05:39:35.671Z,7.80
2022-12-15T05:42:03.178Z,7.90
2022-12-15T05:44:30.587Z,7.90
2022-12-15T05:46:57.958Z,7.90
2022-12-15T05:49:25.594Z,8.00
2022-12-15T05:51:53.366Z,8.10
2022-12-15T05:54:21.181Z,8.30
2022-12-15T05:56:50.540Z,8.20
2022-12-15T05:59:19.532Z,7.70
2022-12-15T06:01:48.629Z,7.60
2022-12-15T06:04:16.132Z,7.70
2022-12-15T06:06:43.443Z,7.80
2022-12-15T06:09:11.155Z,7.80
2022-12-15T06:11:39.010Z,7.90
2022-12-15T06:14:06.635Z,7.90
2022-12-15T06:16:34.521Z,7.90
2022-12-15T06:19:03.949Z,7.90
2022-12-15T06:21:35.717Z,7.90
2022-12-15T06:24:07.354Z,7.90
2022-12-15T06:26:39.448Z,8.00
2022-12-15T06:29:10.295Z,8.30
2022-12-15T06:31:40.052Z,8.40
2022-12-15T06:34:14.493Z,8.30
2022-12-15T06:36:47.742Z,8.10
2022-12-15T06:39:16.192Z,8.20
2022-12-15T06:41:44.286Z,8.20
2022-12-15T06:44:16.719Z,8.20
2022-12-15T06:46:46.261Z,7.90
2022-12-15T06:49:14.774Z,7.90
2022-12-15T06:51:42.992Z,8.00
2022-12-15T06:54:11.379Z,7.70
2022-12-15T06:56:39.626Z,7.50
2022-12-15T06:59:07.804Z,7.50
2022-12-15T07:01:36.263Z,7.50
2022-12-15T07:04:06.071Z,7.60
2022-12-15T07:06:37.062Z,7.60
2022-12-15T07:09:13.666Z,7.60
2022-12-15T07:11:41.073Z,7.70
2022-12-15T07:14:09.529Z,7.70
2022-12-15T07:16:36.791Z,7.90
2022-12-15T07:19:04.160Z,7.90
2022-12-15T07:21:32.351Z,7.90
2022-12-15T07:24:01.288Z,7.80
2022-12-15T07:26:29.105Z,7.80
2022-12-15T07:28:56.741Z,7.90
2022-12-15T07:31:24.378Z,8.00
2022-12-15T07:33:52.767Z,8.20
2022-12-15T07:36:20.614Z,8.30
2022-12-15T07:38:50.705Z,8.40
2022-12-15T07:41:27.518Z,8.70
2022-12-15T07:43:54.893Z,8.70
2022-12-15T07:46:28.231Z,8.50
2022-12-15T07:48:55.824Z,8.40
2022-12-15T07:51:24.068Z,8.20
2022-12-15T07:53:51.526Z,8.30
2022-12-15T07:56:20.372Z,8.20
2022-12-15T07:58:48.282Z,8.00
2022-12-15T08:01:16.559Z,8.30
2022-12-15T08:03:45.233Z,8.20
2022-12-15T08:06:14.423Z,8.10
2022-12-15T08:08:43.865Z,8.10
2022-12-15T08:11:13.849Z,8.20
2022-12-15T08:16:30.400Z,8.30
2022-12-15T08:19:10.406Z,8.20
2022-12-15T08:21:41.544Z,8.40
2022-12-15T08:24:10.511Z,8.30
2022-12-15T08:26:41.576Z,8.40
2022-12-15T08:29:48.831Z,8.50
2022-12-15T08:32:24.424Z,8.60
2022-12-15T08:34:51.963Z,8.70
2022-12-15T08:37:19.080Z,8.80
2022-12-15T08:39:46.363Z,8.70
2022-12-15T08:42:13.838Z,8.70
2022-12-15T08:44:41.434Z,8.70
2022-12-15T08:47:08.865Z,8.80
2022-12-15T08:49:36.273Z,8.70
2022-12-15T08:52:03.564Z,8.60
2022-12-15T08:54:32.975Z,8.70
2022-12-15T08:57:00.390Z,8.80
2022-12-15T08:59:27.722Z,8.80
2022-12-15T09:01:55.435Z,8.70
2022-12-15T09:04:23.150Z,8.80
2022-12-15T09:06:51.816Z,9.00
2022-12-15T09:09:21.478Z,9.20
2022-12-15T09:11:50.522Z,9.40
2022-12-15T09:14:22.841Z,9.50
2022-12-15T09:16:56.332Z,9.50
2022-12-15T09:19:23.765Z,9.20
2022-12-15T09:21:51.039Z,9.10
2022-12-15T09:24:28.909Z,9.20
2022-12-15T09:27:03.874Z,9.10
2022-12-15T09:29:32.186Z,9.30
2022-12-15T09:31:59.762Z,9.50
2022-12-15T09:34:27.184Z,9.50
2022-12-15T09:36:54.318Z,9.70
2022-12-15T09:39:26.911Z,9.70
2022-12-15T09:42:00.946Z,9.80
2022-12-15T09:44:30.662Z,9.80
2022-12-15T09:47:01.394Z,9.80
2022-12-15T09:49:34.609Z,9.90
2022-12-15T09:52:31.464Z,9.90
2022-12-15T09:54:59.857Z,10.00
2022-12-15T09:57:48.628Z,10.10
2022-12-15T10:00:21.759Z,10.20
2022-12-15T10:03:07.385Z,10.30
2022-12-15T10:06:16.978Z,10.40
2022-12-15T10:08:51.007Z,10.40
2022-12-15T10:11:28.280Z,10.50
2022-12-15T10:14:24.043Z,10.60
2022-12-15T10:16:58.916Z,10.50
2022-12-15T10:19:50.148Z,10.50
2022-12-15T10:22:25.620Z,10.60
2022-12-15T10:25:11.178Z,10.50
2022-12-15T10:28:00.076Z,10.50
2022-12-15T10:30:27.350Z,10.60
2022-12-15T10:33:16.786Z,10.70
2022-12-15T10:35:44.275Z,10.80
2022-12-15T10:38:40.653Z,10.70
2022-12-15T10:41:20.420Z,10.70
2022-12-15T10:43:50.351Z,10.60
2022-12-15T10:46:26.566Z,10.40
2022-12-15T10:48:57.388Z,10.50
2022-12-15T10:51:57.428Z,10.70
2022-12-15T10:54:31.975Z,10.80
2022-12-15T10:57:14.590Z,10.90
2022-12-15T10:59:41.790Z,10.80
2022-12-15T11:02:34.808Z,10.80
2022-12-15T11:05:03.771Z,10.90
2022-12-15T11:07:40.840Z,10.90
2022-12-15T11:10:52.660Z,10.90
2022-12-15T11:13:25.495Z,11.10
2022-12-15T11:15:56.685Z,11.10
2022-12-15T11:18:42.928Z,11.10
2022-12-15T11:21:25.054Z,11.30
2022-12-15T11:23:55.329Z,11.30
2022-12-15T11:26:49.306Z,11.30
2022-12-15T11:29:23.656Z,11.20
2022-12-15T11:31:52.792Z,10.90
2022-12-15T11:34:26.874Z,10.90
2022-12-15T11:37:36.812Z,11.10
2022-12-15T11:40:23.739Z,11.10
2022-12-15T11:42:53.827Z,11.00
2022-12-15T11:45:36.533Z,11.00
2022-12-15T11:48:21.157Z,10.90
2022-12-15T11:51:00.390Z,10.80
2022-12-15T11:53:33.978Z,10.80
2022-12-15T11:56:26.742Z,10.70
2022-12-15T11:59:26.561Z,10.70
2022-12-15T12:02:12.914Z,10.70
2022-12-15T12:04:58.401Z,10.70
2022-12-15T12:07:49.108Z,10.80
2022-12-15T12:10:47.893Z,10.70
2022-12-15T12:13:53.364Z,10.70
2022-12-15T12:16:52.636Z,10.70
2022-12-15T12:19:27.796Z,10.70
2022-12-15T12:22:04.596Z,10.80
2022-12-15T12:24:49.008Z,10.90
2022-12-15T12:27:41.257Z,10.90
2022-12-15T12:30:18.442Z,10.90
2022-12-15T12:32:50.577Z,10.80
2022-12-15T12:35:33.231Z,10.80
2022-12-15T12:38:04.426Z,10.80
2022-12-15T12:40:41.933Z,10.70
2022-12-15T12:43:14.219Z,10.70
2022-12-15T12:45:41.759Z,10.70
2022-12-15T12:48:30.693Z,10.60
2022-12-15T12:51:19.934Z,10.70
2022-12-15T12:53:48.710Z,10.70
2022-12-15T12:56:48.711Z,10.70
2022-12-15T12:59:29.748Z,10.70
2022-12-15T13:01:58.552Z,10.60
2022-12-15T13:04:34.077Z,10.70
2022-12-15T13:07:11.523Z,10.70
2022-12-15T13:09:42.676Z,10.80
2022-12-15T13:12:52.871Z,10.90
2022-12-15T13:15:30.633Z,10.90
2022-12-15T13:18:24.463Z,11.00
2022-12-15T13:20:55.807Z,10.90
2022-12-15T13:23:31.032Z,10.80
2022-12-15T13:25:59.005Z,10.80
2022-12-15T13:28:35.570Z,10.80
2022-12-15T13:31:19.262Z,10.80
2022-12-15T13:33:55.804Z,10.90
2022-12-15T13:36:42.318Z,10.90
2022-12-15T13:39:13.058Z,10.90
2022-12-15T13:42:31.748Z,10.90
2022-12-15T13:44:44.296Z,10.80
2022-12-15T13:47:15.909Z,10.70
2022-12-15T13:49:53.283Z,10.80
2022-12-15T13:53:19.040Z,10.80
2022-12-15T13:55:59.182Z,10.70
2022-12-15T13:58:30.276Z,10.60
2022-12-15T14:00:59.808Z,10.40
2022-12-15T14:03:27.102Z,10.50
2022-12-15T14:05:57.258Z,10.50
2022-12-15T14:08:29.609Z,10.50
2022-12-15T14:11:16.833Z,10.60
2022-12-15T14:13:54.258Z,10.50
2022-12-15T14:16:27.437Z,10.60
2022-12-15T14:19:15.086Z,10.50
2022-12-15T14:21:50.316Z,10.50
2022-12-15T14:24:47.560Z,10.70
2022-12-15T14:27:24.493Z,10.70
2022-12-15T14:30:19.576Z,10.70
2022-12-15T14:32:57.208Z,10.70
2022-12-15T14:35:39.586Z,10.70
2022-12-15T14:38:17.308Z,10.80
2022-12-15T14:40:46.641Z,10.70
2022-12-15T14:43:23.788Z,10.80
2022-12-15T14:45:55.693Z,10.80
2022-12-15T14:48:41.823Z,10.80
2022-12-15T14:51:13.430Z,10.80
2022-12-15T14:53:43.913Z,10.80
2022-12-15T14:56:25.679Z,10.80
2022-12-15T14:59:19.067Z,10.80
2022-12-15T15:02:20.297Z,10.70
2022-12-15T15:05:05.497Z,10.70
2022-12-15T15:07:34.584Z,10.70
2022-12-15T15:10:33.217Z,10.60
2022-12-15T15:13:01.023Z,10.60
2022-12-15T15:15:28.257Z,10.60
2022-12-15T15:18:02.657Z,10.60
2022-12-15T15:20:34.453Z,10.60
2022-12-15T15:23:17.022Z,10.60
2022-12-15T15:25:57.636Z,10.60
2022-12-15T15:28:30.245Z,10.60
2022-12-15T15:31:05.368Z,10.60
2022-12-15T15:33:36.342Z,10.60
2022-12-15T15:36:06.527Z,10.70
2022-12-15T15:38:38.272Z,10.70
2022-12-15T15:41:32.556Z,10.70
2022-12-15T15:44:03.165Z,10.70
2022-12-15T15:46:33.545Z,10.60
2022-12-15T15:49:21.030Z,10.70
2022-12-15T15:51:51.062Z,10.70
2022-12-15T15:54:23.118Z,10.70
2022-12-15T15:56:54.692Z,10.70
2022-12-15T15:59:25.323Z,10.80
2022-12-15T16:01:56.340Z,10.70
2022-12-15T16:04:26.648Z,10.60
2022-12-15T16:06:54.174Z,10.60
2022-12-15T16:09:31.316Z,10.60
2022-12-15T16:12:00.846Z,10.60
2022-12-15T16:14:30.486Z,10.60
2022-12-15T16:17:00.651Z,10.60
2022-12-15T16:19:28.811Z,10.60
2022-12-15T16:21:56.367Z,10.70
2022-12-15T16:27:31.221Z,10.60
2022-12-15T16:30:00.965Z,10.60
2022-12-15T16:32:28.217Z,10.50
2022-12-15T16:34:55.304Z,10.60
2022-12-15T16:37:27.477Z,10.50
2022-12-15T16:39:54.940Z,10.50
2022-12-15T16:42:30.015Z,10.50
2022-12-15T16:44:58.314Z,10.50
2022-12-15T16:47:25.806Z,10.40
2022-12-15T16:49:53.072Z,10.40
2022-12-15T16:52:22.404Z,10.40
2022-12-15T16:54:50.804Z,10.40
2022-12-15T16:57:18.614Z,10.40
2022-12-15T16:59:45.873Z,10.40
2022-12-15T17:02:28.510Z,10.40
2022-12-15T17:04:56.273Z,10.30
2022-12-15T17:07:36.405Z,10.30
2022-12-15T17:10:04.308Z,10.30
2022-12-15T17:12:34.512Z,10.30
2022-12-15T17:15:05.323Z,10.20
2022-12-15T17:17:32.615Z,10.20
2022-12-15T17:22:55.301Z,10.10
2022-12-15T17:25:45.936Z,10.20
2022-12-15T17:28:40.759Z,10.20
2022-12-15T17:31:19.704Z,10.30
2022-12-15T17:33:50.187Z,10.30
2022-12-15T17:36:25.815Z,10.30
2022-12-15T17:39:04.377Z,10.40
2022-12-15T17:41:58.604Z,10.50
2022-12-15T17:44:35.801Z,10.60
2022-12-15T17:47:10.375Z,10.50
2022-12-15T17:49:41.679Z,10.50
2022-12-15T17:52:20.923Z,10.50
2022-12-15T17:54:50.194Z,10.40
2022-12-15T17:57:17.634Z,10.40
2022-12-15T17:59:44.907Z,10.40
2022-12-15T18:02:15.166Z,10.40
2022-12-15T18:04:44.185Z,10.40
2022-12-15T18:07:20.679Z,10.40
2022-12-15T18:09:54.028Z,10.40
2022-12-15T18:12:27.539Z,10.40
2022-12-15T18:14:56.158Z,10.50
2022-12-15T18:17:23.789Z,10.60
2022-12-15T18:19:51.132Z,10.70
2022-12-15T18:22:28.903Z,10.60
2022-12-15T18:24:56.059Z,10.50
2022-12-15T18:27:28.600Z,10.40
2022-12-15T18:29:57.217Z,10.40
2022-12-15T18:32:27.646Z,10.40
2022-12-15T18:34:58.921Z,10.40
2022-12-15T18:37:26.505Z,10.40
2022-12-15T18:39:54.238Z,10.40
2022-12-15T18:42:29.369Z,10.30
2022-12-15T18:45:00.370Z,10.30
2022-12-15T18:47:27.874Z,10.30
2022-12-15T18:49:55.279Z,10.30
2022-12-15T18:52:27.677Z,10.30
2022-12-15T18:54:57.384Z,10.30
2022-12-15T18:57:41.232Z,10.30
2022-12-15T19:00:16.766Z,10.30
2022-12-15T19:02:44.162Z,10.30
2022-12-15T19:05:28.063Z,10.30
2022-12-15T19:08:02.060Z,10.30
2022-12-15T19:10:39.009Z,10.30
2022-12-15T19:13:14.621Z,10.30
2022-12-15T19:15:42.323Z,10.20
2022-12-15T19:18:46.113Z,10.20
2022-12-15T19:21:40.539Z,10.20
2022-12-15T19:24:40.795Z,10.10
2022-12-15T19:27:16.233Z,10.20
2022-12-15T19:29:45.175Z,10.20
2022-12-15T19:32:16.850Z,10.20
2022-12-15T19:34:49.594Z,10.30
2022-12-15T19:37:25.211Z,10.30
2022-12-15T19:39:53.324Z,10.40
2022-12-15T19:42:29.631Z,10.40
2022-12-15T19:45:14.565Z,10.40
2022-12-15T19:47:41.715Z,10.40
2022-12-15T19:50:17.162Z,10.40
2022-12-15T19:52:51.119Z,10.40
2022-12-15T19:55:23.981Z,10.30
2022-12-15T19:57:51.173Z,10.20
2022-12-15T20:00:25.794Z,10.20
2022-12-15T20:02:56.805Z,10.20
2022-12-15T20:05:28.959Z,10.30
2022-12-15T20:07:58.944Z,10.40
2022-12-15T20:10:35.433Z,10.40
2022-12-15T20:13:12.571Z,10.40
2022-12-15T20:15:47.479Z,10.40
2022-12-15T20:18:17.634Z,10.40
2022-12-15T20:20:46.532Z,10.20
2022-12-15T20:23:26.755Z,10.20
2022-12-15T20:25:56.108Z,10.20
2022-12-15T20:28:29.795Z,10.20
2022-12-15T20:31:27.080Z,10.20
2022-12-15T20:33:57.413Z,10.20
2022-12-15T20:36:29.982Z,10.30
2022-12-15T20:39:00.268Z,10.40
2022-12-15T20:41:33.048Z,10.50
2022-12-15T20:44:00.506Z,10.50
2022-12-15T20:46:35.682Z,10.40
2022-12-15T20:49:13.549Z,10.40
2022-12-15T20:51:40.961Z,10.40
2022-12-15T20:54:16.739Z,10.40
2022-12-15T20:56:44.648Z,10.40
2022-12-15T20:59:14.976Z,10.40
2022-12-15T21:01:43.418Z,10.40
2022-12-15T21:04:18.052Z,10.40
2022-12-15T21:06:48.689Z,10.40
2022-12-15T21:09:21.204Z,10.50
2022-12-15T21:11:52.853Z,10.50
2022-12-15T21:14:24.155Z,10.50
2022-12-15T21:16:54.583Z,10.40
2022-12-15T21:19:22.853Z,10.40
2022-12-15T21:21:56.769Z,10.40
2022-12-15T21:24:33.319Z,10.40
2022-12-15T21:27:06.226Z,10.40
2022-12-15T21:29:34.683Z,10.30
2022-12-15T21:32:02.112Z,10.30
2022-12-15T21:34:31.830Z,10.40
2022-12-15T21:37:06.745Z,10.40
2022-12-15T21:39:36.651Z,10.40
2022-12-15T21:42:11.557Z,10.40
2022-12-15T21:44:42.425Z,10.40
2022-12-15T21:47:25.840Z,10.40
2022-12-15T21:49:56.316Z,10.40
2022-12-15T21:52:27.710Z,10.30
2022-12-15T21:54:57.877Z,10.40
2022-12-15T21:57:25.302Z,10.50
2022-12-15T21:59:52.691Z,10.50
2022-12-15T22:02:27.324Z,10.50
2022-12-15T22:04:55.241Z,10.50
2022-12-15T22:07:22.586Z,10.50
2022-12-15T22:09:54.113Z,10.50
2022-12-15T22:12:24.534Z,10.50
2022-12-15T22:14:52.218Z,10.50
2022-12-15T22:17:26.471Z,10.50
2022-12-15T22:19:53.769Z,10.40
2022-12-15T22:22:21.190Z,10.40
2022-12-15T22:24:48.784Z,10.40
2022-12-15T22:27:22.041Z,10.30
2022-12-15T22:29:53.958Z,10.20
2022-12-15T22:32:24.067Z,10.20
2022-12-15T22:34:51.357Z,10.20
2022-12-15T22:37:19.334Z,10.10
2022-12-15T22:39:46.642Z,10.10
2022-12-15T22:42:17.868Z,10.10
2022-12-15T22:44:47.499Z,10.10
2022-12-15T22:47:14.918Z,10.10
2022-12-15T22:49:43.253Z,10.10
2022-12-15T22:52:18.946Z,10.20
2022-12-15T22:54:46.492Z,10.10
2022-12-15T22:57:24.629Z,10.00
2022-12-15T23:00:05.700Z,9.90
2022-12-15T23:02:36.175Z,10.00
2022-12-15T23:05:04.078Z,10.10
2022-12-15T23:07:32.930Z,10.20
2022-12-15T23:10:18.555Z,10.20
2022-12-15T23:12:45.832Z,10.10
2022-12-15T23:15:31.347Z,10.10
2022-12-15T23:17:58.489Z,10.10
2022-12-15T23:20:25.569Z,10.20
2022-12-15T23:22:52.924Z,10.20
2022-12-15T23:25:21.940Z,10.30
2022-12-15T23:27:49.098Z,10.30
2022-12-15T23:30:16.383Z,10.30
2022-12-15T23:32:43.587Z,10.30
2022-12-15T23:35:10.676Z,10.30
2022-12-15T23:37:37.777Z,10.20
2022-12-15T23:40:05.620Z,10.30
2022-12-15T23:42:32.753Z,10.30
2022-12-15T23:44:59.962Z,10.30
2022-12-15T23:47:27.254Z,10.30
2022-12-15T23:49:54.426Z,10.30
2022-12-15T23:52:22.040Z,10.30
2022-12-15T23:54:49.146Z,10.30
2022-12-15T23:57:17.575Z,10.20
2022-12-15T23:59:44.714Z,10.20
